createdAt,value
2017-11-20T17:39:32.864Z,6.32
2017-11-20T17:42:02.375Z,7.25
2017-11-20T17:44:31.223Z,7.60
2017-11-20T17:46:59.900Z,8.38
2017-11-20T17:49:27.594Z,7.07
2017-11-20T17:51:55.172Z,8.20
2017-11-20T17:54:22.899Z,8.00
2017-11-20T17:56:50.704Z,6.72
2017-11-20T17:59:58.430Z,8.98
2017-11-20T18:05:49.944Z,11.40
2017-11-20T18:08:19.207Z,16.65
2017-11-20T18:10:47.516Z,10.43
2017-11-20T18:13:16.424Z,10.60
2017-11-20T18:18:19.679Z,11.32
2017-11-20T18:20:47.709Z,11.15
2017-11-20T18:26:30.106Z,11.90
2017-11-20T18:29:23.018Z,11.15
2017-11-20T18:31:51.922Z,10.60
2017-11-20T18:34:19.708Z,9.02
2017-11-20T18:36:47.514Z,9.75
2017-11-20T18:39:15.982Z,9.85
2017-11-20T18:41:45.431Z,8.30
2017-11-20T18:44:14.043Z,8.80
2017-11-20T18:46:42.930Z,9.50
2017-11-20T18:49:25.994Z,7.50
2017-11-20T18:51:56.049Z,7.68
2017-11-20T18:54:24.663Z,8.13
2017-11-20T18:56:52.359Z,8.30
2017-11-20T19:03:09.726Z,6.93
2017-11-20T19:12:16.750Z,7.65
2017-11-20T19:18:00.605Z,8.10
2017-11-20T19:20:28.203Z,7.70
2017-11-20T19:22:58.924Z,8.65
2017-11-20T19:25:27.576Z,9.85
2017-11-20T19:28:08.969Z,6.95
2017-11-20T19:34:13.852Z,7.80
2017-11-20T19:36:53.248Z,8.07
2017-11-20T19:39:27.715Z,6.45
2017-11-20T19:44:58.496Z,7.28
2017-11-20T19:53:50.779Z,7.85
2017-11-20T19:56:18.503Z,8.18
2017-11-20T19:58:46.755Z,7.55
2017-11-20T20:01:15.630Z,6.55
2017-11-20T20:03:46.344Z,8.48
2017-11-20T20:06:14.899Z,6.43
2017-11-20T20:15:44.040Z,7.53
